sensor_id;sensor_type;location;lat;lon;timestamp;temperature;humidity
41953;DHT22;63613;28.200;112.870;2023-06-10T00:00:46;28.40;72.30
41953;DHT22;63613;28.200;112.870;2023-06-10T00:03:13;28.50;72.30
41953;DHT22;63613;28.200;112.870;2023-06-10T00:05:40;28.50;72.20
41953;DHT22;63613;28.200;112.870;2023-06-10T00:08:07;28.50;72.00
41953;DHT22;63613;28.200;112.870;2023-06-10T00:10:35;28.50;71.90
41953;DHT22;63613;28.200;112.870;2023-06-10T00:13:06;28.50;71.70
41953;DHT22;63613;28.200;112.870;2023-06-10T00:15:37;28.60;71.70
41953;DHT22;63613;28.200;112.870;2023-06-10T00:18:05;28.60;72.00
41953;DHT22;63613;28.200;112.870;2023-06-10T00:20:32;28.60;72.40
41953;DHT22;63613;28.200;112.870;2023-06-10T00:23:01;28.60;72.30
41953;DHT22;63613;28.200;112.870;2023-06-10T00:25:28;28.60;72.10
41953;DHT22;63613;28.200;112.870;2023-06-10T00:27:58;28.60;71.90
41953;DHT22;63613;28.200;112.870;2023-06-10T00:30:25;28.70;71.70
41953;DHT22;63613;28.200;112.870;2023-06-10T00:32:52;28.70;71.80
41953;DHT22;63613;28.200;112.870;2023-06-10T00:35:19;28.70;71.40
41953;DHT22;63613;28.200;112.870;2023-06-10T00:37:46;28.70;71.20
41953;DHT22;63613;28.200;112.870;2023-06-10T00:40:13;28.60;69.80
41953;DHT22;63613;28.200;112.870;2023-06-10T00:42:40;28.60;70.30
41953;DHT22;63613;28.200;112.870;2023-06-10T00:45:07;28.70;69.30
41953;DHT22;63613;28.200;112.870;2023-06-10T00:47:34;28.70;69.20
41953;DHT22;63613;28.200;112.870;2023-06-10T00:50:02;28.70;69.40
41953;DHT22;63613;28.200;112.870;2023-06-10T00:52:29;28.70;69.50
41953;DHT22;63613;28.200;112.870;2023-06-10T00:54:59;28.70;69.70
41953;DHT22;63613;28.200;112.870;2023-06-10T00:57:26;28.70;70.00
41953;DHT22;63613;28.200;112.870;2023-06-10T00:59:54;28.80;70.10
41953;DHT22;63613;28.200;112.870;2023-06-10T01:02:21;28.80;70.20
41953;DHT22;63613;28.200;112.870;2023-06-10T01:04:48;28.80;70.50
41953;DHT22;63613;28.200;112.870;2023-06-10T01:07:25;28.80;70.50
41953;DHT22;63613;28.200;112.870;2023-06-10T01:10:16;28.80;70.40
41953;DHT22;63613;28.200;112.870;2023-06-10T01:13:02;28.90;70.50
41953;DHT22;63613;28.200;112.870;2023-06-10T01:15:31;28.90;70.50
41953;DHT22;63613;28.200;112.870;2023-06-10T01:17:58;28.80;70.40
41953;DHT22;63613;28.200;112.870;2023-06-10T01:20:26;28.90;70.20
41953;DHT22;63613;28.200;112.870;2023-06-10T01:22:57;28.90;70.10
41953;DHT22;63613;28.200;112.870;2023-06-10T01:25:25;28.90;69.90
41953;DHT22;63613;28.200;112.870;2023-06-10T01:30:32;29.00;69.80
41953;DHT22;63613;28.200;112.870;2023-06-10T01:33:03;29.00;69.70
41953;DHT22;63613;28.200;112.870;2023-06-10T01:35:33;29.10;69.60
41953;DHT22;63613;28.200;112.870;2023-06-10T01:38:03;29.00;69.80
41953;DHT22;63613;28.200;112.870;2023-06-10T01:40:31;29.10;69.80
41953;DHT22;63613;28.200;112.870;2023-06-10T01:42:58;29.10;69.90
41953;DHT22;63613;28.200;112.870;2023-06-10T01:45:25;29.10;69.70
41953;DHT22;63613;28.200;112.870;2023-06-10T01:47:52;29.10;69.60
41953;DHT22;63613;28.200;112.870;2023-06-10T01:50:19;29.10;69.60
41953;DHT22;63613;28.200;112.870;2023-06-10T01:52:46;29.10;69.50
41953;DHT22;63613;28.200;112.870;2023-06-10T01:55:13;29.10;69.30
41953;DHT22;63613;28.200;112.870;2023-06-10T01:57:41;29.10;69.20
41953;DHT22;63613;28.200;112.870;2023-06-10T02:00:08;29.20;69.00
41953;DHT22;63613;28.200;112.870;2023-06-10T02:02:36;29.10;68.80
41953;DHT22;63613;28.200;112.870;2023-06-10T02:05:04;29.10;68.80
41953;DHT22;63613;28.200;112.870;2023-06-10T02:07:31;29.20;68.60
41953;DHT22;63613;28.200;112.870;2023-06-10T02:09:58;29.20;68.40
41953;DHT22;63613;28.200;112.870;2023-06-10T02:12:24;29.20;68.50
41953;DHT22;63613;28.200;112.870;2023-06-10T02:14:51;29.20;68.40
41953;DHT22;63613;28.200;112.870;2023-06-10T02:17:18;29.20;68.50
41953;DHT22;63613;28.200;112.870;2023-06-10T02:19:45;29.30;68.60
41953;DHT22;63613;28.200;112.870;2023-06-10T02:22:21;29.30;68.60
41953;DHT22;63613;28.200;112.870;2023-06-10T02:24:48;29.30;68.50
41953;DHT22;63613;28.200;112.870;2023-06-10T02:27:16;29.30;68.20
41953;DHT22;63613;28.200;112.870;2023-06-10T02:29:43;29.20;65.10
41953;DHT22;63613;28.200;112.870;2023-06-10T02:32:10;29.20;64.40
41953;DHT22;63613;28.200;112.870;2023-06-10T02:34:37;29.20;64.20
41953;DHT22;63613;28.200;112.870;2023-06-10T02:37:04;29.20;64.30
41953;DHT22;63613;28.200;112.870;2023-06-10T02:39:31;29.30;64.20
41953;DHT22;63613;28.200;112.870;2023-06-10T02:41:58;29.20;64.00
41953;DHT22;63613;28.200;112.870;2023-06-10T02:44:25;29.20;63.30
41953;DHT22;63613;28.200;112.870;2023-06-10T02:46:51;29.20;62.80
41953;DHT22;63613;28.200;112.870;2023-06-10T02:49:18;29.30;62.20
41953;DHT22;63613;28.200;112.870;2023-06-10T02:51:45;29.30;61.50
41953;DHT22;63613;28.200;112.870;2023-06-10T02:54:12;29.30;60.80
41953;DHT22;63613;28.200;112.870;2023-06-10T02:56:39;29.30;60.20
41953;DHT22;63613;28.200;112.870;2023-06-10T02:59:07;29.30;59.40
41953;DHT22;63613;28.200;112.870;2023-06-10T03:01:34;29.30;58.40
41953;DHT22;63613;28.200;112.870;2023-06-10T03:04:08;29.30;58.10
41953;DHT22;63613;28.200;112.870;2023-06-10T03:06:38;29.30;58.10
41953;DHT22;63613;28.200;112.870;2023-06-10T03:09:07;29.30;58.00
41953;DHT22;63613;28.200;112.870;2023-06-10T03:11:34;29.30;57.80
41953;DHT22;63613;28.200;112.870;2023-06-10T03:14:01;29.30;58.10
41953;DHT22;63613;28.200;112.870;2023-06-10T03:16:28;29.40;58.10
41953;DHT22;63613;28.200;112.870;2023-06-10T03:18:58;29.40;58.40
41953;DHT22;63613;28.200;112.870;2023-06-10T03:21:25;29.40;58.20
41953;DHT22;63613;28.200;112.870;2023-06-10T03:24:12;29.40;58.10
41953;DHT22;63613;28.200;112.870;2023-06-10T03:26:39;29.40;57.70
41953;DHT22;63613;28.200;112.870;2023-06-10T03:29:06;29.40;57.60
41953;DHT22;63613;28.200;112.870;2023-06-10T03:31:33;29.40;58.00
41953;DHT22;63613;28.200;112.870;2023-06-10T03:34:01;29.40;57.80
41953;DHT22;63613;28.200;112.870;2023-06-10T03:36:29;29.40;57.70
41953;DHT22;63613;28.200;112.870;2023-06-10T03:38:56;29.40;57.50
41953;DHT22;63613;28.200;112.870;2023-06-10T03:41:23;29.40;57.50
41953;DHT22;63613;28.200;112.870;2023-06-10T03:43:50;29.50;57.30
41953;DHT22;63613;28.200;112.870;2023-06-10T03:46:17;29.50;57.30
41953;DHT22;63613;28.200;112.870;2023-06-10T03:48:44;29.60;57.40
41953;DHT22;63613;28.200;112.870;2023-06-10T03:51:11;29.60;57.40
41953;DHT22;63613;28.200;112.870;2023-06-10T03:53:38;29.60;57.50
41953;DHT22;63613;28.200;112.870;2023-06-10T03:56:06;29.60;57.70
41953;DHT22;63613;28.200;112.870;2023-06-10T03:58:33;29.60;57.80
41953;DHT22;63613;28.200;112.870;2023-06-10T04:01:00;29.60;57.70
41953;DHT22;63613;28.200;112.870;2023-06-10T04:03:26;29.60;57.70
41953;DHT22;63613;28.200;112.870;2023-06-10T04:05:54;29.60;58.10
41953;DHT22;63613;28.200;112.870;2023-06-10T04:08:21;29.60;58.70
41953;DHT22;63613;28.200;112.870;2023-06-10T04:10:48;29.60;58.60
41953;DHT22;63613;28.200;112.870;2023-06-10T04:13:15;29.60;58.50
41953;DHT22;63613;28.200;112.870;2023-06-10T04:15:42;29.70;58.70
41953;DHT22;63613;28.200;112.870;2023-06-10T04:18:08;29.60;58.80
41953;DHT22;63613;28.200;112.870;2023-06-10T04:20:35;29.70;59.00
41953;DHT22;63613;28.200;112.870;2023-06-10T04:23:02;29.70;59.10
41953;DHT22;63613;28.200;112.870;2023-06-10T04:25:31;29.70;59.20
41953;DHT22;63613;28.200;112.870;2023-06-10T04:27:59;29.70;59.20
41953;DHT22;63613;28.200;112.870;2023-06-10T04:30:26;29.70;59.50
41953;DHT22;63613;28.200;112.870;2023-06-10T04:32:53;29.70;59.90
41953;DHT22;63613;28.200;112.870;2023-06-10T04:35:20;29.70;59.90
41953;DHT22;63613;28.200;112.870;2023-06-10T04:37:47;29.70;60.10
41953;DHT22;63613;28.200;112.870;2023-06-10T04:40:14;29.70;60.10
41953;DHT22;63613;28.200;112.870;2023-06-10T04:42:42;29.70;59.90
41953;DHT22;63613;28.200;112.870;2023-06-10T04:45:09;29.70;59.90
41953;DHT22;63613;28.200;112.870;2023-06-10T04:47:38;29.70;60.20
41953;DHT22;63613;28.200;112.870;2023-06-10T04:50:05;29.70;60.40
41953;DHT22;63613;28.200;112.870;2023-06-10T04:52:34;29.70;60.50
41953;DHT22;63613;28.200;112.870;2023-06-10T04:55:00;29.80;60.40
41953;DHT22;63613;28.200;112.870;2023-06-10T04:57:30;29.80;60.50
41953;DHT22;63613;28.200;112.870;2023-06-10T04:59:57;29.80;60.50
41953;DHT22;63613;28.200;112.870;2023-06-10T05:02:24;29.80;60.50
41953;DHT22;63613;28.200;112.870;2023-06-10T05:04:51;29.90;60.50
41953;DHT22;63613;28.200;112.870;2023-06-10T05:07:19;29.90;60.50
41953;DHT22;63613;28.200;112.870;2023-06-10T05:09:46;29.90;60.50
41953;DHT22;63613;28.200;112.870;2023-06-10T05:12:15;29.90;60.50
41953;DHT22;63613;28.200;112.870;2023-06-10T05:14:42;29.90;60.50
41953;DHT22;63613;28.200;112.870;2023-06-10T05:17:15;29.90;60.50
41953;DHT22;63613;28.200;112.870;2023-06-10T05:19:42;29.90;60.90
41953;DHT22;63613;28.200;112.870;2023-06-10T05:22:11;29.90;61.40
41953;DHT22;63613;28.200;112.870;2023-06-10T05:24:39;29.90;61.70
41953;DHT22;63613;28.200;112.870;2023-06-10T05:27:06;29.90;61.70
41953;DHT22;63613;28.200;112.870;2023-06-10T05:29:33;29.90;61.70
41953;DHT22;63613;28.200;112.870;2023-06-10T05:32:00;30.00;61.80
41953;DHT22;63613;28.200;112.870;2023-06-10T05:34:30;30.00;61.60
41953;DHT22;63613;28.200;112.870;2023-06-10T05:37:00;30.00;61.20
41953;DHT22;63613;28.200;112.870;2023-06-10T05:39:29;30.00;60.60
41953;DHT22;63613;28.200;112.870;2023-06-10T05:41:56;30.00;59.80
41953;DHT22;63613;28.200;112.870;2023-06-10T05:44:28;30.00;59.30
41953;DHT22;63613;28.200;112.870;2023-06-10T05:46:58;30.00;58.70
41953;DHT22;63613;28.200;112.870;2023-06-10T05:49:25;30.00;58.40
41953;DHT22;63613;28.200;112.870;2023-06-10T05:51:52;30.00;58.30
41953;DHT22;63613;28.200;112.870;2023-06-10T05:54:22;30.00;58.20
41953;DHT22;63613;28.200;112.870;2023-06-10T05:56:48;30.00;58.60
41953;DHT22;63613;28.200;112.870;2023-06-10T05:59:15;30.00;58.70
41953;DHT22;63613;28.200;112.870;2023-06-10T06:01:42;30.00;58.30
41953;DHT22;63613;28.200;112.870;2023-06-10T06:04:11;30.00;58.20
41953;DHT22;63613;28.200;112.870;2023-06-10T06:06:39;30.00;57.80
41953;DHT22;63613;28.200;112.870;2023-06-10T06:09:26;30.00;57.30
41953;DHT22;63613;28.200;112.870;2023-06-10T06:11:53;29.90;56.80
41953;DHT22;63613;28.200;112.870;2023-06-10T06:14:20;30.00;56.70
41953;DHT22;63613;28.200;112.870;2023-06-10T06:16:47;30.00;56.40
41953;DHT22;63613;28.200;112.870;2023-06-10T06:19:15;30.00;55.70
41953;DHT22;63613;28.200;112.870;2023-06-10T06:22:05;30.10;55.40
41953;DHT22;63613;28.200;112.870;2023-06-10T06:24:32;30.10;54.90
41953;DHT22;63613;28.200;112.870;2023-06-10T06:26:58;30.10;54.40
41953;DHT22;63613;28.200;112.870;2023-06-10T06:29:25;30.00;53.80
41953;DHT22;63613;28.200;112.870;2023-06-10T06:31:52;30.00;53.30
41953;DHT22;63613;28.200;112.870;2023-06-10T06:34:21;30.00;53.20
41953;DHT22;63613;28.200;112.870;2023-06-10T06:36:47;30.00;52.70
41953;DHT22;63613;28.200;112.870;2023-06-10T06:39:18;30.00;52.40
41953;DHT22;63613;28.200;112.870;2023-06-10T06:41:45;30.00;52.10
41953;DHT22;63613;28.200;112.870;2023-06-10T06:44:14;30.00;50.60
41953;DHT22;63613;28.200;112.870;2023-06-10T06:46:44;30.00;50.00
41953;DHT22;63613;28.200;112.870;2023-06-10T06:49:11;30.00;49.60
41953;DHT22;63613;28.200;112.870;2023-06-10T06:51:38;29.90;43.10
41953;DHT22;63613;28.200;112.870;2023-06-10T06:54:05;29.90;45.50
41953;DHT22;63613;28.200;112.870;2023-06-10T06:56:33;30.00;46.20
41953;DHT22;63613;28.200;112.870;2023-06-10T06:59:02;30.00;47.60
41953;DHT22;63613;28.200;112.870;2023-06-10T07:01:32;30.00;48.20
41953;DHT22;63613;28.200;112.870;2023-06-10T07:04:00;30.00;49.10
41953;DHT22;63613;28.200;112.870;2023-06-10T07:06:27;30.00;49.80
41953;DHT22;63613;28.200;112.870;2023-06-10T07:08:54;30.00;51.40
41953;DHT22;63613;28.200;112.870;2023-06-10T07:11:23;30.00;52.60
41953;DHT22;63613;28.200;112.870;2023-06-10T07:13:58;30.00;53.80
41953;DHT22;63613;28.200;112.870;2023-06-10T07:16:28;30.00;54.40
41953;DHT22;63613;28.200;112.870;2023-06-10T07:18:54;29.90;54.30
41953;DHT22;63613;28.200;112.870;2023-06-10T07:21:25;29.90;53.90
41953;DHT22;63613;28.200;112.870;2023-06-10T07:23:51;29.90;54.90
41953;DHT22;63613;28.200;112.870;2023-06-10T07:26:24;30.00;55.40
41953;DHT22;63613;28.200;112.870;2023-06-10T07:28:55;29.90;55.30
41953;DHT22;63613;28.200;112.870;2023-06-10T07:31:30;29.90;54.40
41953;DHT22;63613;28.200;112.870;2023-06-10T07:33:57;29.90;54.30
41953;DHT22;63613;28.200;112.870;2023-06-10T07:36:24;29.90;54.00
41953;DHT22;63613;28.200;112.870;2023-06-10T07:38:54;29.90;53.70
41953;DHT22;63613;28.200;112.870;2023-06-10T07:41:22;29.90;53.70
41953;DHT22;63613;28.200;112.870;2023-06-10T07:43:49;29.90;53.40
41953;DHT22;63613;28.200;112.870;2023-06-10T07:46:21;30.00;53.20
41953;DHT22;63613;28.200;112.870;2023-06-10T07:48:48;30.00;53.40
41953;DHT22;63613;28.200;112.870;2023-06-10T07:51:16;30.00;54.00
41953;DHT22;63613;28.200;112.870;2023-06-10T07:53:43;30.00;54.60
41953;DHT22;63613;28.200;112.870;2023-06-10T07:56:11;30.00;54.90
41953;DHT22;63613;28.200;112.870;2023-06-10T07:58:38;30.00;55.10
41953;DHT22;63613;28.200;112.870;2023-06-10T08:01:06;30.00;55.30
41953;DHT22;63613;28.200;112.870;2023-06-10T08:03:56;30.00;54.60
41953;DHT22;63613;28.200;112.870;2023-06-10T08:06:23;30.00;54.10
41953;DHT22;63613;28.200;112.870;2023-06-10T08:08:51;29.90;53.60
41953;DHT22;63613;28.200;112.870;2023-06-10T08:11:18;29.90;52.90
41953;DHT22;63613;28.200;112.870;2023-06-10T08:13:46;29.90;52.60
41953;DHT22;63613;28.200;112.870;2023-06-10T08:16:32;29.90;52.40
41953;DHT22;63613;28.200;112.870;2023-06-10T08:18:59;29.90;52.00
41953;DHT22;63613;28.200;112.870;2023-06-10T08:21:27;29.90;52.10
41953;DHT22;63613;28.200;112.870;2023-06-10T08:23:54;29.90;51.90
41953;DHT22;63613;28.200;112.870;2023-06-10T08:26:21;30.00;51.50
41953;DHT22;63613;28.200;112.870;2023-06-10T08:28:49;29.90;51.10
41953;DHT22;63613;28.200;112.870;2023-06-10T08:31:16;29.90;50.80
41953;DHT22;63613;28.200;112.870;2023-06-10T08:33:43;29.90;51.20
41953;DHT22;63613;28.200;112.870;2023-06-10T08:36:10;29.90;51.30
41953;DHT22;63613;28.200;112.870;2023-06-10T08:38:38;29.90;50.70
41953;DHT22;63613;28.200;112.870;2023-06-10T08:41:06;29.90;50.30
41953;DHT22;63613;28.200;112.870;2023-06-10T08:43:39;29.80;50.80
41953;DHT22;63613;28.200;112.870;2023-06-10T08:46:11;29.80;50.30
41953;DHT22;63613;28.200;112.870;2023-06-10T08:48:43;29.80;49.70
41953;DHT22;63613;28.200;112.870;2023-06-10T08:51:32;29.80;49.40
41953;DHT22;63613;28.200;112.870;2023-06-10T08:54:11;29.80;49.70
41953;DHT22;63613;28.200;112.870;2023-06-10T08:56:42;29.80;49.60
41953;DHT22;63613;28.200;112.870;2023-06-10T08:59:10;29.80;50.40
41953;DHT22;63613;28.200;112.870;2023-06-10T09:01:38;29.80;50.00
41953;DHT22;63613;28.200;112.870;2023-06-10T09:04:05;29.90;51.20
41953;DHT22;63613;28.200;112.870;2023-06-10T09:06:34;29.90;52.70
41953;DHT22;63613;28.200;112.870;2023-06-10T09:09:02;29.90;53.50
41953;DHT22;63613;28.200;112.870;2023-06-10T09:11:31;29.90;54.50
41953;DHT22;63613;28.200;112.870;2023-06-10T09:13:58;29.80;55.60
41953;DHT22;63613;28.200;112.870;2023-06-10T09:16:25;29.80;57.10
41953;DHT22;63613;28.200;112.870;2023-06-10T09:18:52;29.80;58.30
41953;DHT22;63613;28.200;112.870;2023-06-10T09:21:24;29.80;59.00
41953;DHT22;63613;28.200;112.870;2023-06-10T09:23:51;29.80;59.60
41953;DHT22;63613;28.200;112.870;2023-06-10T09:26:19;29.80;58.20
41953;DHT22;63613;28.200;112.870;2023-06-10T09:28:50;29.80;57.00
41953;DHT22;63613;28.200;112.870;2023-06-10T09:31:17;29.70;56.50
41953;DHT22;63613;28.200;112.870;2023-06-10T09:33:48;29.70;56.40
41953;DHT22;63613;28.200;112.870;2023-06-10T09:36:23;29.70;56.00
41953;DHT22;63613;28.200;112.870;2023-06-10T09:38:50;29.70;55.20
41953;DHT22;63613;28.200;112.870;2023-06-10T09:41:17;29.70;55.10
41953;DHT22;63613;28.200;112.870;2023-06-10T09:43:48;29.70;54.20
41953;DHT22;63613;28.200;112.870;2023-06-10T09:46:19;29.70;55.20
41953;DHT22;63613;28.200;112.870;2023-06-10T09:48:50;29.70;56.40
41953;DHT22;63613;28.200;112.870;2023-06-10T09:51:18;29.70;56.90
41953;DHT22;63613;28.200;112.870;2023-06-10T09:53:54;29.70;57.30
41953;DHT22;63613;28.200;112.870;2023-06-10T09:56:35;29.70;57.80
41953;DHT22;63613;28.200;112.870;2023-06-10T09:59:03;29.70;58.60
41953;DHT22;63613;28.200;112.870;2023-06-10T10:01:32;29.70;59.00
41953;DHT22;63613;28.200;112.870;2023-06-10T10:04:00;29.70;59.10
41953;DHT22;63613;28.200;112.870;2023-06-10T10:06:28;29.70;61.90
41953;DHT22;63613;28.200;112.870;2023-06-10T10:08:58;29.80;63.60
41953;DHT22;63613;28.200;112.870;2023-06-10T10:11:25;29.70;63.70
41953;DHT22;63613;28.200;112.870;2023-06-10T10:14:14;29.70;63.20
41953;DHT22;63613;28.200;112.870;2023-06-10T10:16:43;29.70;62.20
41953;DHT22;63613;28.200;112.870;2023-06-10T10:19:28;29.60;61.40
41953;DHT22;63613;28.200;112.870;2023-06-10T10:22:07;29.70;60.40
41953;DHT22;63613;28.200;112.870;2023-06-10T10:24:44;29.60;59.90
41953;DHT22;63613;28.200;112.870;2023-06-10T10:27:20;29.60;58.80
41953;DHT22;63613;28.200;112.870;2023-06-10T10:29:50;29.60;58.30
41953;DHT22;63613;28.200;112.870;2023-06-10T10:32:28;29.60;58.30
41953;DHT22;63613;28.200;112.870;2023-06-10T10:37:34;29.60;59.70
41953;DHT22;63613;28.200;112.870;2023-06-10T10:40:03;29.60;60.00
41953;DHT22;63613;28.200;112.870;2023-06-10T10:42:30;29.60;60.10
41953;DHT22;63613;28.200;112.870;2023-06-10T10:44:59;29.60;60.30
41953;DHT22;63613;28.200;112.870;2023-06-10T10:47:28;29.60;59.40
41953;DHT22;63613;28.200;112.870;2023-06-10T10:50:00;29.50;58.80
41953;DHT22;63613;28.200;112.870;2023-06-10T10:53:00;29.50;58.00
41953;DHT22;63613;28.200;112.870;2023-06-10T10:55:32;29.50;57.80
41953;DHT22;63613;28.200;112.870;2023-06-10T10:58:06;29.50;56.70
41953;DHT22;63613;28.200;112.870;2023-06-10T11:00:34;29.50;55.80
41953;DHT22;63613;28.200;112.870;2023-06-10T11:03:13;29.40;55.60
41953;DHT22;63613;28.200;112.870;2023-06-10T11:05:42;29.40;55.80
41953;DHT22;63613;28.200;112.870;2023-06-10T11:10:55;29.40;55.70
41953;DHT22;63613;28.200;112.870;2023-06-10T11:13:22;29.40;55.30
41953;DHT22;63613;28.200;112.870;2023-06-10T11:15:50;29.30;55.10
41953;DHT22;63613;28.200;112.870;2023-06-10T11:18:30;29.30;54.90
41953;DHT22;63613;28.200;112.870;2023-06-10T11:23:53;29.30;54.70
41953;DHT22;63613;28.200;112.870;2023-06-10T11:31:49;29.30;55.30
41953;DHT22;63613;28.200;112.870;2023-06-10T11:34:27;29.20;55.40
41953;DHT22;63613;28.200;112.870;2023-06-10T11:36:55;29.20;55.20
41953;DHT22;63613;28.200;112.870;2023-06-10T11:39:42;29.20;55.10
41953;DHT22;63613;28.200;112.870;2023-06-10T11:42:10;29.30;54.90
41953;DHT22;63613;28.200;112.870;2023-06-10T11:44:57;29.20;55.20
41953;DHT22;63613;28.200;112.870;2023-06-10T11:47:24;29.20;56.90
41953;DHT22;63613;28.200;112.870;2023-06-10T11:49:58;29.20;58.30
41953;DHT22;63613;28.200;112.870;2023-06-10T11:52:30;29.20;59.50
41953;DHT22;63613;28.200;112.870;2023-06-10T11:55:04;29.20;58.80
41953;DHT22;63613;28.200;112.870;2023-06-10T11:57:34;29.20;58.80
41953;DHT22;63613;28.200;112.870;2023-06-10T12:00:08;29.20;59.60
41953;DHT22;63613;28.200;112.870;2023-06-10T12:02:38;29.20;60.20
41953;DHT22;63613;28.200;112.870;2023-06-10T12:05:14;29.20;61.10
41953;DHT22;63613;28.200;112.870;2023-06-10T12:07:41;29.20;61.10
41953;DHT22;63613;28.200;112.870;2023-06-10T12:10:08;29.20;60.60
41953;DHT22;63613;28.200;112.870;2023-06-10T12:12:35;29.20;60.30
41953;DHT22;63613;28.200;112.870;2023-06-10T12:15:25;29.10;59.80
41953;DHT22;63613;28.200;112.870;2023-06-10T12:17:52;29.10;59.80
41953;DHT22;63613;28.200;112.870;2023-06-10T12:20:27;29.10;60.90
41953;DHT22;63613;28.200;112.870;2023-06-10T12:23:15;29.10;61.60
41953;DHT22;63613;28.200;112.870;2023-06-10T12:25:55;29.10;60.60
41953;DHT22;63613;28.200;112.870;2023-06-10T12:28:51;29.10;59.50
41953;DHT22;63613;28.200;112.870;2023-06-10T12:31:20;29.10;59.80
41953;DHT22;63613;28.200;112.870;2023-06-10T12:34:07;29.00;60.00
41953;DHT22;63613;28.200;112.870;2023-06-10T12:36:34;29.00;59.70
41953;DHT22;63613;28.200;112.870;2023-06-10T12:39:05;29.10;59.60
41953;DHT22;63613;28.200;112.870;2023-06-10T12:41:52;29.00;59.00
41953;DHT22;63613;28.200;112.870;2023-06-10T12:44:34;29.00;58.60
41953;DHT22;63613;28.200;112.870;2023-06-10T12:47:10;29.00;58.20
41953;DHT22;63613;28.200;112.870;2023-06-10T12:49:41;29.00;57.80
41953;DHT22;63613;28.200;112.870;2023-06-10T12:52:08;29.00;57.60
41953;DHT22;63613;28.200;112.870;2023-06-10T12:54:35;29.00;57.30
41953;DHT22;63613;28.200;112.870;2023-06-10T12:57:02;29.00;57.20
41953;DHT22;63613;28.200;112.870;2023-06-10T12:59:30;29.00;56.80
41953;DHT22;63613;28.200;112.870;2023-06-10T13:01:58;29.00;56.70
41953;DHT22;63613;28.200;112.870;2023-06-10T13:04:25;28.90;56.60
41953;DHT22;63613;28.200;112.870;2023-06-10T13:06:53;29.00;56.40
41953;DHT22;63613;28.200;112.870;2023-06-10T13:09:21;28.90;56.40
41953;DHT22;63613;28.200;112.870;2023-06-10T13:11:48;28.90;56.20
41953;DHT22;63613;28.200;112.870;2023-06-10T13:14:15;28.70;46.40
41953;DHT22;63613;28.200;112.870;2023-06-10T13:17:02;28.60;45.70
41953;DHT22;63613;28.200;112.870;2023-06-10T13:19:30;28.60;46.60
41953;DHT22;63613;28.200;112.870;2023-06-10T13:22:17;28.70;47.10
41953;DHT22;63613;28.200;112.870;2023-06-10T13:24:48;28.70;48.10
41953;DHT22;63613;28.200;112.870;2023-06-10T13:27:17;28.70;48.70
41953;DHT22;63613;28.200;112.870;2023-06-10T13:29:44;28.70;49.20
41953;DHT22;63613;28.200;112.870;2023-06-10T13:32:11;28.70;49.70
41953;DHT22;63613;28.200;112.870;2023-06-10T13:34:39;28.70;50.40
41953;DHT22;63613;28.200;112.870;2023-06-10T13:37:06;28.70;50.90
41953;DHT22;63613;28.200;112.870;2023-06-10T13:39:33;28.70;51.30
41953;DHT22;63613;28.200;112.870;2023-06-10T13:42:04;28.80;51.70
41953;DHT22;63613;28.200;112.870;2023-06-10T13:44:34;28.80;52.20
41953;DHT22;63613;28.200;112.870;2023-06-10T13:47:05;28.70;53.10
41953;DHT22;63613;28.200;112.870;2023-06-10T13:49:32;28.70;53.60
41953;DHT22;63613;28.200;112.870;2023-06-10T13:52:02;28.80;53.90
41953;DHT22;63613;28.200;112.870;2023-06-10T13:54:40;28.70;54.30
41953;DHT22;63613;28.200;112.870;2023-06-10T13:57:08;28.80;54.30
41953;DHT22;63613;28.200;112.870;2023-06-10T13:59:39;28.70;54.90
41953;DHT22;63613;28.200;112.870;2023-06-10T14:02:07;28.80;56.50
41953;DHT22;63613;28.200;112.870;2023-06-10T14:04:33;28.80;57.00
41953;DHT22;63613;28.200;112.870;2023-06-10T14:07:00;28.80;58.10
41953;DHT22;63613;28.200;112.870;2023-06-10T14:09:27;28.80;59.30
41953;DHT22;63613;28.200;112.870;2023-06-10T14:11:57;28.80;59.40
41953;DHT22;63613;28.200;112.870;2023-06-10T14:14:24;28.80;59.80
41953;DHT22;63613;28.200;112.870;2023-06-10T14:16:52;28.80;60.40
41953;DHT22;63613;28.200;112.870;2023-06-10T14:19:20;28.70;50.00
41953;DHT22;63613;28.200;112.870;2023-06-10T14:21:46;28.50;53.50
41953;DHT22;63613;28.200;112.870;2023-06-10T14:24:15;28.40;55.90
41953;DHT22;63613;28.200;112.870;2023-06-10T14:26:42;28.30;60.40
41953;DHT22;63613;28.200;112.870;2023-06-10T14:29:11;28.30;64.80
41953;DHT22;63613;28.200;112.870;2023-06-10T14:31:41;28.30;68.60
41953;DHT22;63613;28.200;112.870;2023-06-10T14:34:08;28.30;71.20
41953;DHT22;63613;28.200;112.870;2023-06-10T14:36:39;28.30;72.90
41953;DHT22;63613;28.200;112.870;2023-06-10T14:39:06;28.30;74.30
41953;DHT22;63613;28.200;112.870;2023-06-10T14:41:34;28.30;74.60
41953;DHT22;63613;28.200;112.870;2023-06-10T14:44:04;28.30;76.40
41953;DHT22;63613;28.200;112.870;2023-06-10T14:46:31;28.30;77.00
41953;DHT22;63613;28.200;112.870;2023-06-10T14:49:02;28.30;78.10
41953;DHT22;63613;28.200;112.870;2023-06-10T14:51:32;28.40;78.40
41953;DHT22;63613;28.200;112.870;2023-06-10T14:53:59;28.40;79.20
41953;DHT22;63613;28.200;112.870;2023-06-10T14:56:27;28.40;79.90
41953;DHT22;63613;28.200;112.870;2023-06-10T14:58:56;28.40;80.00
41953;DHT22;63613;28.200;112.870;2023-06-10T15:01:23;28.30;79.70
41953;DHT22;63613;28.200;112.870;2023-06-10T15:03:50;28.30;79.60
41953;DHT22;63613;28.200;112.870;2023-06-10T15:06:20;28.30;79.10
41953;DHT22;63613;28.200;112.870;2023-06-10T15:08:49;28.30;78.50
41953;DHT22;63613;28.200;112.870;2023-06-10T15:11:16;28.20;78.80
41953;DHT22;63613;28.200;112.870;2023-06-10T15:13:43;28.30;79.70
41953;DHT22;63613;28.200;112.870;2023-06-10T15:16:09;28.30;80.10
41953;DHT22;63613;28.200;112.870;2023-06-10T15:18:39;28.30;80.50
41953;DHT22;63613;28.200;112.870;2023-06-10T15:21:06;28.30;80.90
41953;DHT22;63613;28.200;112.870;2023-06-10T15:23:33;28.30;81.00
41953;DHT22;63613;28.200;112.870;2023-06-10T15:26:00;28.30;81.40
41953;DHT22;63613;28.200;112.870;2023-06-10T15:28:28;28.30;81.90
41953;DHT22;63613;28.200;112.870;2023-06-10T15:30:55;28.30;81.90
41953;DHT22;63613;28.200;112.870;2023-06-10T15:33:23;28.30;81.80